sensor_id;sensor_type;location;lat;lon;timestamp;temperature;humidity
51476;DHT22;37554;50.362;7.568;2023-07-13T00:01:47;25.10;42.80
51476;DHT22;37554;50.362;7.568;2023-07-13T00:04:19;25.10;43.50
51476;DHT22;37554;50.362;7.568;2023-07-13T00:06:46;25.10;42.80
51476;DHT22;37554;50.362;7.568;2023-07-13T00:09:13;25.10;42.80
51476;DHT22;37554;50.362;7.568;2023-07-13T00:11:39;25.10;42.80
51476;DHT22;37554;50.362;7.568;2023-07-13T00:14:05;25.00;42.70
51476;DHT22;37554;50.362;7.568;2023-07-13T00:16:32;25.00;42.70
51476;DHT22;37554;50.362;7.568;2023-07-13T00:18:58;25.00;42.70
51476;DHT22;37554;50.362;7.568;2023-07-13T00:21:25;25.00;42.80
51476;DHT22;37554;50.362;7.568;2023-07-13T00:23:51;25.00;42.70
51476;DHT22;37554;50.362;7.568;2023-07-13T00:26:17;24.90;42.70
51476;DHT22;37554;50.362;7.568;2023-07-13T00:28:42;24.90;42.70
51476;DHT22;37554;50.362;7.568;2023-07-13T00:31:10;24.90;42.60
51476;DHT22;37554;50.362;7.568;2023-07-13T00:33:36;25.00;42.50
51476;DHT22;37554;50.362;7.568;2023-07-13T00:36:02;24.90;42.40
51476;DHT22;37554;50.362;7.568;2023-07-13T00:38:28;24.90;42.30
51476;DHT22;37554;50.362;7.568;2023-07-13T00:40:53;24.90;42.30
51476;DHT22;37554;50.362;7.568;2023-07-13T00:43:22;24.90;42.30
51476;DHT22;37554;50.362;7.568;2023-07-13T00:48:18;24.90;42.30
51476;DHT22;37554;50.362;7.568;2023-07-13T00:50:48;24.90;42.30
51476;DHT22;37554;50.362;7.568;2023-07-13T00:53:15;24.80;42.30
51476;DHT22;37554;50.362;7.568;2023-07-13T00:55:42;24.80;42.40
51476;DHT22;37554;50.362;7.568;2023-07-13T00:58:07;24.80;42.50
51476;DHT22;37554;50.362;7.568;2023-07-13T01:00:38;24.70;42.50
51476;DHT22;37554;50.362;7.568;2023-07-13T01:03:04;24.70;42.50
51476;DHT22;37554;50.362;7.568;2023-07-13T01:05:32;24.70;42.70
51476;DHT22;37554;50.362;7.568;2023-07-13T01:07:59;24.70;42.80
51476;DHT22;37554;50.362;7.568;2023-07-13T01:10:26;24.70;42.90
51476;DHT22;37554;50.362;7.568;2023-07-13T01:12:52;24.70;42.90
51476;DHT22;37554;50.362;7.568;2023-07-13T01:15:44;24.60;43.00
51476;DHT22;37554;50.362;7.568;2023-07-13T01:18:19;24.60;43.40
51476;DHT22;37554;50.362;7.568;2023-07-13T01:23:17;24.50;43.40
51476;DHT22;37554;50.362;7.568;2023-07-13T01:25:44;24.50;43.40
51476;DHT22;37554;50.362;7.568;2023-07-13T01:28:10;24.50;43.50
51476;DHT22;37554;50.362;7.568;2023-07-13T01:30:36;24.50;43.60
51476;DHT22;37554;50.362;7.568;2023-07-13T01:33:08;24.50;43.60
51476;DHT22;37554;50.362;7.568;2023-07-13T01:35:35;24.40;43.60
51476;DHT22;37554;50.362;7.568;2023-07-13T01:38:01;24.40;43.50
51476;DHT22;37554;50.362;7.568;2023-07-13T01:40:28;24.40;43.60
51476;DHT22;37554;50.362;7.568;2023-07-13T01:42:54;24.30;44.40
51476;DHT22;37554;50.362;7.568;2023-07-13T01:45:20;24.30;43.70
51476;DHT22;37554;50.362;7.568;2023-07-13T01:47:45;24.30;43.80
51476;DHT22;37554;50.362;7.568;2023-07-13T01:50:11;24.20;43.60
51476;DHT22;37554;50.362;7.568;2023-07-13T01:52:36;24.20;43.60
51476;DHT22;37554;50.362;7.568;2023-07-13T01:55:02;24.20;43.60
51476;DHT22;37554;50.362;7.568;2023-07-13T01:57:28;24.20;43.70
51476;DHT22;37554;50.362;7.568;2023-07-13T01:59:54;24.20;43.70
51476;DHT22;37554;50.362;7.568;2023-07-13T02:02:19;24.10;43.60
51476;DHT22;37554;50.362;7.568;2023-07-13T02:04:45;24.10;43.60
51476;DHT22;37554;50.362;7.568;2023-07-13T02:07:10;24.10;43.70
51476;DHT22;37554;50.362;7.568;2023-07-13T02:09:36;24.10;43.80
51476;DHT22;37554;50.362;7.568;2023-07-13T02:12:02;24.10;43.80
51476;DHT22;37554;50.362;7.568;2023-07-13T02:14:28;24.00;43.90
51476;DHT22;37554;50.362;7.568;2023-07-13T02:16:54;24.00;43.90
51476;DHT22;37554;50.362;7.568;2023-07-13T02:19:20;24.00;43.90
51476;DHT22;37554;50.362;7.568;2023-07-13T02:21:45;24.00;44.00
51476;DHT22;37554;50.362;7.568;2023-07-13T02:24:11;23.90;44.00
51476;DHT22;37554;50.362;7.568;2023-07-13T02:26:43;23.90;44.10
51476;DHT22;37554;50.362;7.568;2023-07-13T02:29:08;23.90;44.20
51476;DHT22;37554;50.362;7.568;2023-07-13T02:31:34;23.80;44.20
51476;DHT22;37554;50.362;7.568;2023-07-13T02:34:01;23.80;44.20
51476;DHT22;37554;50.362;7.568;2023-07-13T02:36:27;23.80;44.30
51476;DHT22;37554;50.362;7.568;2023-07-13T02:38:52;23.80;44.30
51476;DHT22;37554;50.362;7.568;2023-07-13T02:41:18;23.80;44.20
51476;DHT22;37554;50.362;7.568;2023-07-13T02:43:44;23.80;44.20
51476;DHT22;37554;50.362;7.568;2023-07-13T02:46:09;23.70;44.20
51476;DHT22;37554;50.362;7.568;2023-07-13T02:48:37;23.70;44.20
51476;DHT22;37554;50.362;7.568;2023-07-13T02:51:03;23.70;44.20
51476;DHT22;37554;50.362;7.568;2023-07-13T02:53:28;23.70;44.30
51476;DHT22;37554;50.362;7.568;2023-07-13T02:55:54;23.60;44.20
51476;DHT22;37554;50.362;7.568;2023-07-13T02:58:19;23.60;44.20
51476;DHT22;37554;50.362;7.568;2023-07-13T03:00:46;23.60;44.20
51476;DHT22;37554;50.362;7.568;2023-07-13T03:03:16;23.60;44.20
51476;DHT22;37554;50.362;7.568;2023-07-13T03:05:43;23.60;44.30
51476;DHT22;37554;50.362;7.568;2023-07-13T03:08:11;23.50;44.20
51476;DHT22;37554;50.362;7.568;2023-07-13T03:10:37;23.50;44.40
51476;DHT22;37554;50.362;7.568;2023-07-13T03:13:04;23.50;44.50
51476;DHT22;37554;50.362;7.568;2023-07-13T03:15:30;23.40;44.50
51476;DHT22;37554;50.362;7.568;2023-07-13T03:17:56;23.40;44.60
51476;DHT22;37554;50.362;7.568;2023-07-13T03:20:21;23.40;44.60
51476;DHT22;37554;50.362;7.568;2023-07-13T03:22:47;23.40;44.70
51476;DHT22;37554;50.362;7.568;2023-07-13T03:25:12;23.30;44.70
51476;DHT22;37554;50.362;7.568;2023-07-13T03:27:38;23.30;44.80
51476;DHT22;37554;50.362;7.568;2023-07-13T03:30:05;23.30;44.80
51476;DHT22;37554;50.362;7.568;2023-07-13T03:32:31;23.30;44.80
51476;DHT22;37554;50.362;7.568;2023-07-13T03:34:57;23.30;44.80
51476;DHT22;37554;50.362;7.568;2023-07-13T03:37:23;23.30;44.80
51476;DHT22;37554;50.362;7.568;2023-07-13T03:39:49;23.20;44.80
51476;DHT22;37554;50.362;7.568;2023-07-13T03:42:14;23.30;44.80
51476;DHT22;37554;50.362;7.568;2023-07-13T03:44:41;23.20;44.70
51476;DHT22;37554;50.362;7.568;2023-07-13T03:47:07;23.20;44.80
51476;DHT22;37554;50.362;7.568;2023-07-13T03:49:34;23.10;45.00
51476;DHT22;37554;50.362;7.568;2023-07-13T03:52:00;23.10;45.10
51476;DHT22;37554;50.362;7.568;2023-07-13T03:54:26;23.10;45.10
51476;DHT22;37554;50.362;7.568;2023-07-13T03:56:51;23.10;45.20
51476;DHT22;37554;50.362;7.568;2023-07-13T03:59:17;23.10;45.20
51476;DHT22;37554;50.362;7.568;2023-07-13T04:01:44;23.10;45.20
51476;DHT22;37554;50.362;7.568;2023-07-13T04:04:09;23.10;45.20
51476;DHT22;37554;50.362;7.568;2023-07-13T04:06:35;23.00;45.20
51476;DHT22;37554;50.362;7.568;2023-07-13T04:09:02;23.00;45.30
51476;DHT22;37554;50.362;7.568;2023-07-13T04:11:31;23.00;45.30
51476;DHT22;37554;50.362;7.568;2023-07-13T04:13:57;23.00;45.40
51476;DHT22;37554;50.362;7.568;2023-07-13T04:16:23;23.00;45.40
51476;DHT22;37554;50.362;7.568;2023-07-13T04:18:49;23.10;45.40
51476;DHT22;37554;50.362;7.568;2023-07-13T04:21:16;23.00;45.50
51476;DHT22;37554;50.362;7.568;2023-07-13T04:23:42;23.10;45.50
51476;DHT22;37554;50.362;7.568;2023-07-13T04:26:08;23.00;45.40
51476;DHT22;37554;50.362;7.568;2023-07-13T04:28:34;23.10;45.40
51476;DHT22;37554;50.362;7.568;2023-07-13T04:31:00;23.00;45.30
51476;DHT22;37554;50.362;7.568;2023-07-13T04:33:26;23.10;45.30
51476;DHT22;37554;50.362;7.568;2023-07-13T04:35:54;23.10;45.30
51476;DHT22;37554;50.362;7.568;2023-07-13T04:38:29;23.00;45.20
51476;DHT22;37554;50.362;7.568;2023-07-13T04:40:56;23.00;45.20
51476;DHT22;37554;50.362;7.568;2023-07-13T04:43:23;23.00;45.30
51476;DHT22;37554;50.362;7.568;2023-07-13T04:45:49;23.00;45.30
51476;DHT22;37554;50.362;7.568;2023-07-13T04:48:15;23.00;45.20
51476;DHT22;37554;50.362;7.568;2023-07-13T04:50:41;23.10;45.30
51476;DHT22;37554;50.362;7.568;2023-07-13T04:53:08;23.10;45.30
51476;DHT22;37554;50.362;7.568;2023-07-13T04:55:34;23.10;45.20
51476;DHT22;37554;50.362;7.568;2023-07-13T04:58:00;23.10;45.20
51476;DHT22;37554;50.362;7.568;2023-07-13T05:00:26;23.10;45.10
51476;DHT22;37554;50.362;7.568;2023-07-13T05:02:51;23.10;45.20
51476;DHT22;37554;50.362;7.568;2023-07-13T05:05:17;23.10;45.20
51476;DHT22;37554;50.362;7.568;2023-07-13T05:07:43;23.20;45.20
51476;DHT22;37554;50.362;7.568;2023-07-13T05:10:09;23.20;45.30
51476;DHT22;37554;50.362;7.568;2023-07-13T05:12:35;23.20;45.30
51476;DHT22;37554;50.362;7.568;2023-07-13T05:15:02;23.20;45.20
51476;DHT22;37554;50.362;7.568;2023-07-13T05:17:28;23.20;45.20
51476;DHT22;37554;50.362;7.568;2023-07-13T05:19:53;23.30;45.10
51476;DHT22;37554;50.362;7.568;2023-07-13T05:22:19;23.30;44.90
51476;DHT22;37554;50.362;7.568;2023-07-13T05:24:45;23.30;44.90
51476;DHT22;37554;50.362;7.568;2023-07-13T05:27:10;23.30;44.70
51476;DHT22;37554;50.362;7.568;2023-07-13T05:29:36;23.40;44.60
51476;DHT22;37554;50.362;7.568;2023-07-13T05:32:02;23.40;44.50
51476;DHT22;37554;50.362;7.568;2023-07-13T05:34:29;23.50;44.30
51476;DHT22;37554;50.362;7.568;2023-07-13T05:36:55;23.50;44.30
51476;DHT22;37554;50.362;7.568;2023-07-13T05:39:20;23.40;44.10
51476;DHT22;37554;50.362;7.568;2023-07-13T05:41:46;23.50;44.20
51476;DHT22;37554;50.362;7.568;2023-07-13T05:44:11;23.50;44.10
51476;DHT22;37554;50.362;7.568;2023-07-13T05:46:37;23.30;44.20
51476;DHT22;37554;50.362;7.568;2023-07-13T05:49:03;22.90;45.00
51476;DHT22;37554;50.362;7.568;2023-07-13T05:51:29;22.60;45.80
51476;DHT22;37554;50.362;7.568;2023-07-13T05:53:54;22.30;46.30
51476;DHT22;37554;50.362;7.568;2023-07-13T05:56:20;22.10;47.10
51476;DHT22;37554;50.362;7.568;2023-07-13T05:58:47;21.90;47.50
51476;DHT22;37554;50.362;7.568;2023-07-13T06:01:15;21.80;47.70
51476;DHT22;37554;50.362;7.568;2023-07-13T06:03:41;21.80;47.80
51476;DHT22;37554;50.362;7.568;2023-07-13T06:06:08;21.70;47.90
51476;DHT22;37554;50.362;7.568;2023-07-13T06:08:35;21.80;48.10
51476;DHT22;37554;50.362;7.568;2023-07-13T06:11:18;21.70;48.20
51476;DHT22;37554;50.362;7.568;2023-07-13T06:13:45;21.80;48.40
51476;DHT22;37554;50.362;7.568;2023-07-13T06:16:11;21.90;48.00
51476;DHT22;37554;50.362;7.568;2023-07-13T06:18:37;21.90;47.90
51476;DHT22;37554;50.362;7.568;2023-07-13T06:21:22;21.90;48.50
51476;DHT22;37554;50.362;7.568;2023-07-13T06:23:49;21.90;48.30
51476;DHT22;37554;50.362;7.568;2023-07-13T06:26:16;22.00;48.10
51476;DHT22;37554;50.362;7.568;2023-07-13T06:28:43;22.10;48.00
51476;DHT22;37554;50.362;7.568;2023-07-13T06:31:11;22.20;48.10
51476;DHT22;37554;50.362;7.568;2023-07-13T06:33:38;22.20;48.10
51476;DHT22;37554;50.362;7.568;2023-07-13T06:36:05;22.20;48.00
51476;DHT22;37554;50.362;7.568;2023-07-13T06:38:31;22.10;48.10
51476;DHT22;37554;50.362;7.568;2023-07-13T06:40:57;22.10;48.10
51476;DHT22;37554;50.362;7.568;2023-07-13T06:43:22;22.20;48.10
51476;DHT22;37554;50.362;7.568;2023-07-13T06:45:50;22.20;48.00
51476;DHT22;37554;50.362;7.568;2023-07-13T06:48:17;22.30;48.10
51476;DHT22;37554;50.362;7.568;2023-07-13T06:50:43;22.40;48.30
51476;DHT22;37554;50.362;7.568;2023-07-13T06:53:10;22.50;48.30
51476;DHT22;37554;50.362;7.568;2023-07-13T06:55:36;22.50;48.50
51476;DHT22;37554;50.362;7.568;2023-07-13T06:58:01;22.60;48.50
51476;DHT22;37554;50.362;7.568;2023-07-13T07:00:27;22.70;48.20
51476;DHT22;37554;50.362;7.568;2023-07-13T07:02:52;22.80;48.00
51476;DHT22;37554;50.362;7.568;2023-07-13T07:05:18;22.90;47.80
51476;DHT22;37554;50.362;7.568;2023-07-13T07:07:50;23.00;47.70
51476;DHT22;37554;50.362;7.568;2023-07-13T07:10:16;23.10;47.30
51476;DHT22;37554;50.362;7.568;2023-07-13T07:12:42;23.20;47.20
51476;DHT22;37554;50.362;7.568;2023-07-13T07:15:08;23.30;46.90
51476;DHT22;37554;50.362;7.568;2023-07-13T07:17:34;23.30;47.10
51476;DHT22;37554;50.362;7.568;2023-07-13T07:19:59;23.40;46.80
51476;DHT22;37554;50.362;7.568;2023-07-13T07:22:25;23.40;46.50
51476;DHT22;37554;50.362;7.568;2023-07-13T07:24:53;23.40;46.50
51476;DHT22;37554;50.362;7.568;2023-07-13T07:27:19;23.40;46.50
51476;DHT22;37554;50.362;7.568;2023-07-13T07:29:45;23.50;46.40
51476;DHT22;37554;50.362;7.568;2023-07-13T07:32:11;23.50;46.50
51476;DHT22;37554;50.362;7.568;2023-07-13T07:34:36;23.60;47.00
51476;DHT22;37554;50.362;7.568;2023-07-13T07:37:02;23.70;46.80
51476;DHT22;37554;50.362;7.568;2023-07-13T07:39:28;23.80;46.80
51476;DHT22;37554;50.362;7.568;2023-07-13T07:41:54;23.90;46.50
51476;DHT22;37554;50.362;7.568;2023-07-13T07:44:19;23.80;46.10
51476;DHT22;37554;50.362;7.568;2023-07-13T07:46:45;23.90;45.80
51476;DHT22;37554;50.362;7.568;2023-07-13T07:49:11;23.90;45.50
51476;DHT22;37554;50.362;7.568;2023-07-13T07:51:37;24.10;45.60
51476;DHT22;37554;50.362;7.568;2023-07-13T07:54:04;24.20;45.10
51476;DHT22;37554;50.362;7.568;2023-07-13T07:56:30;24.30;44.90
51476;DHT22;37554;50.362;7.568;2023-07-13T07:58:56;24.40;44.70
51476;DHT22;37554;50.362;7.568;2023-07-13T08:01:22;24.50;44.50
51476;DHT22;37554;50.362;7.568;2023-07-13T08:03:47;24.50;44.90
51476;DHT22;37554;50.362;7.568;2023-07-13T08:06:13;24.50;44.30
51476;DHT22;37554;50.362;7.568;2023-07-13T08:08:39;24.60;44.50
51476;DHT22;37554;50.362;7.568;2023-07-13T08:11:06;24.60;44.20
51476;DHT22;37554;50.362;7.568;2023-07-13T08:13:32;24.70;44.00
51476;DHT22;37554;50.362;7.568;2023-07-13T08:15:58;24.90;43.90
51476;DHT22;37554;50.362;7.568;2023-07-13T08:18:25;25.00;43.70
51476;DHT22;37554;50.362;7.568;2023-07-13T08:20:50;25.00;42.80
51476;DHT22;37554;50.362;7.568;2023-07-13T08:23:17;25.10;42.30
51476;DHT22;37554;50.362;7.568;2023-07-13T08:25:43;25.10;42.10
51476;DHT22;37554;50.362;7.568;2023-07-13T08:28:15;25.10;42.20
51476;DHT22;37554;50.362;7.568;2023-07-13T08:30:40;25.30;42.10
51476;DHT22;37554;50.362;7.568;2023-07-13T08:33:06;25.30;41.60
51476;DHT22;37554;50.362;7.568;2023-07-13T08:35:32;25.30;41.20
51476;DHT22;37554;50.362;7.568;2023-07-13T08:37:57;25.30;41.30
51476;DHT22;37554;50.362;7.568;2023-07-13T08:40:25;25.30;41.10
51476;DHT22;37554;50.362;7.568;2023-07-13T08:42:56;25.20;40.80
51476;DHT22;37554;50.362;7.568;2023-07-13T08:45:42;25.20;40.80
51476;DHT22;37554;50.362;7.568;2023-07-13T08:50:58;25.40;40.20
51476;DHT22;37554;50.362;7.568;2023-07-13T08:53:24;25.50;39.90
51476;DHT22;37554;50.362;7.568;2023-07-13T08:55:58;25.40;40.40
51476;DHT22;37554;50.362;7.568;2023-07-13T08:58:25;25.40;39.80
51476;DHT22;37554;50.362;7.568;2023-07-13T09:03:26;25.50;39.90
51476;DHT22;37554;50.362;7.568;2023-07-13T09:05:59;25.70;39.70
51476;DHT22;37554;50.362;7.568;2023-07-13T09:14:00;25.80;39.20
51476;DHT22;37554;50.362;7.568;2023-07-13T09:16:28;25.90;39.50
51476;DHT22;37554;50.362;7.568;2023-07-13T09:18:58;26.20;39.40
51476;DHT22;37554;50.362;7.568;2023-07-13T09:21:31;26.30;38.80
51476;DHT22;37554;50.362;7.568;2023-07-13T09:24:12;26.30;38.60
51476;DHT22;37554;50.362;7.568;2023-07-13T09:26:45;26.30;38.40
51476;DHT22;37554;50.362;7.568;2023-07-13T09:29:15;26.50;38.40
51476;DHT22;37554;50.362;7.568;2023-07-13T09:31:50;26.70;38.50
51476;DHT22;37554;50.362;7.568;2023-07-13T09:34:18;26.90;37.30
51476;DHT22;37554;50.362;7.568;2023-07-13T09:36:43;27.00;37.60
51476;DHT22;37554;50.362;7.568;2023-07-13T09:39:31;27.10;37.60
51476;DHT22;37554;50.362;7.568;2023-07-13T09:42:24;27.20;37.10
51476;DHT22;37554;50.362;7.568;2023-07-13T09:44:56;27.30;36.40
51476;DHT22;37554;50.362;7.568;2023-07-13T09:47:28;27.30;36.90
51476;DHT22;37554;50.362;7.568;2023-07-13T09:50:06;27.50;36.90
51476;DHT22;37554;50.362;7.568;2023-07-13T09:52:49;27.50;36.10
51476;DHT22;37554;50.362;7.568;2023-07-13T09:55:48;27.50;35.80
51476;DHT22;37554;50.362;7.568;2023-07-13T09:58:19;27.60;37.10
51476;DHT22;37554;50.362;7.568;2023-07-13T10:00:58;27.60;36.70
51476;DHT22;37554;50.362;7.568;2023-07-13T10:03:30;27.80;36.20
51476;DHT22;37554;50.362;7.568;2023-07-13T10:06:14;27.80;35.60
51476;DHT22;37554;50.362;7.568;2023-07-13T10:08:40;27.80;35.70
51476;DHT22;37554;50.362;7.568;2023-07-13T10:11:21;27.90;36.10
51476;DHT22;37554;50.362;7.568;2023-07-13T10:14:01;27.90;35.70
51476;DHT22;37554;50.362;7.568;2023-07-13T10:16:31;27.70;35.90
51476;DHT22;37554;50.362;7.568;2023-07-13T10:19:01;27.40;35.60
51476;DHT22;37554;50.362;7.568;2023-07-13T10:21:33;27.40;35.80
51476;DHT22;37554;50.362;7.568;2023-07-13T10:24:22;27.10;36.10
51476;DHT22;37554;50.362;7.568;2023-07-13T10:29:24;26.80;36.40
51476;DHT22;37554;50.362;7.568;2023-07-13T10:31:51;26.80;36.40
51476;DHT22;37554;50.362;7.568;2023-07-13T10:34:16;26.80;36.50
51476;DHT22;37554;50.362;7.568;2023-07-13T10:36:44;26.70;36.60
51476;DHT22;37554;50.362;7.568;2023-07-13T10:39:17;26.70;36.60
51476;DHT22;37554;50.362;7.568;2023-07-13T10:41:44;26.80;36.90
51476;DHT22;37554;50.362;7.568;2023-07-13T10:44:27;27.00;36.80
51476;DHT22;37554;50.362;7.568;2023-07-13T10:46:59;27.00;36.40
51476;DHT22;37554;50.362;7.568;2023-07-13T10:49:27;27.10;36.50
51476;DHT22;37554;50.362;7.568;2023-07-13T10:51:53;27.10;35.80
51476;DHT22;37554;50.362;7.568;2023-07-13T10:57:16;28.10;35.30
51476;DHT22;37554;50.362;7.568;2023-07-13T11:00:29;28.40;34.20
51476;DHT22;37554;50.362;7.568;2023-07-13T11:02:30;28.40;34.40
51476;DHT22;37554;50.362;7.568;2023-07-13T11:04:56;28.10;34.60
51476;DHT22;37554;50.362;7.568;2023-07-13T11:07:31;28.20;34.30
51476;DHT22;37554;50.362;7.568;2023-07-13T11:09:59;28.10;34.30
51476;DHT22;37554;50.362;7.568;2023-07-13T11:17:47;27.80;34.20
51476;DHT22;37554;50.362;7.568;2023-07-13T11:25:42;26.80;35.20
51476;DHT22;37554;50.362;7.568;2023-07-13T11:30:48;26.60;36.30
51476;DHT22;37554;50.362;7.568;2023-07-13T11:38:38;26.30;36.70
51476;DHT22;37554;50.362;7.568;2023-07-13T11:41:27;26.30;36.90
51476;DHT22;37554;50.362;7.568;2023-07-13T11:44:01;26.30;37.70
51476;DHT22;37554;50.362;7.568;2023-07-13T11:46:28;26.20;36.90
51476;DHT22;37554;50.362;7.568;2023-07-13T11:48:54;26.00;37.90
51476;DHT22;37554;50.362;7.568;2023-07-13T11:51:32;25.90;37.10
51476;DHT22;37554;50.362;7.568;2023-07-13T11:54:03;25.90;37.00
51476;DHT22;37554;50.362;7.568;2023-07-13T11:56:29;26.00;37.10
51476;DHT22;37554;50.362;7.568;2023-07-13T11:58:56;26.10;37.10
51476;DHT22;37554;50.362;7.568;2023-07-13T12:01:28;26.20;37.00
51476;DHT22;37554;50.362;7.568;2023-07-13T12:03:58;26.20;37.20
51476;DHT22;37554;50.362;7.568;2023-07-13T12:06:28;26.20;36.70
51476;DHT22;37554;50.362;7.568;2023-07-13T12:09:02;26.20;36.90
51476;DHT22;37554;50.362;7.568;2023-07-13T12:11:29;26.10;37.00
51476;DHT22;37554;50.362;7.568;2023-07-13T12:13:55;26.10;37.30
51476;DHT22;37554;50.362;7.568;2023-07-13T12:16:30;26.10;37.50
51476;DHT22;37554;50.362;7.568;2023-07-13T12:18:59;26.10;37.00
51476;DHT22;37554;50.362;7.568;2023-07-13T12:21:41;26.00;36.90
51476;DHT22;37554;50.362;7.568;2023-07-13T12:24:17;25.80;36.40
51476;DHT22;37554;50.362;7.568;2023-07-13T12:26:43;25.70;36.70
51476;DHT22;37554;50.362;7.568;2023-07-13T12:29:16;25.70;36.80
51476;DHT22;37554;50.362;7.568;2023-07-13T12:31:44;25.80;37.10
51476;DHT22;37554;50.362;7.568;2023-07-13T12:34:13;25.80;36.90
51476;DHT22;37554;50.362;7.568;2023-07-13T12:36:56;25.80;36.90
51476;DHT22;37554;50.362;7.568;2023-07-13T12:39:35;25.90;36.80
51476;DHT22;37554;50.362;7.568;2023-07-13T12:44:58;26.20;36.80
51476;DHT22;37554;50.362;7.568;2023-07-13T12:47:25;26.20;36.70
51476;DHT22;37554;50.362;7.568;2023-07-13T12:49:57;26.30;36.80
51476;DHT22;37554;50.362;7.568;2023-07-13T12:52:28;26.40;36.80
51476;DHT22;37554;50.362;7.568;2023-07-13T12:54:58;26.50;36.80
51476;DHT22;37554;50.362;7.568;2023-07-13T12:57:24;26.60;36.90
51476;DHT22;37554;50.362;7.568;2023-07-13T12:59:52;26.70;36.80
51476;DHT22;37554;50.362;7.568;2023-07-13T13:02:33;26.80;36.70
51476;DHT22;37554;50.362;7.568;2023-07-13T13:05:02;26.90;36.50
51476;DHT22;37554;50.362;7.568;2023-07-13T13:07:29;27.10;36.50
51476;DHT22;37554;50.362;7.568;2023-07-13T13:09:55;27.20;36.40
51476;DHT22;37554;50.362;7.568;2023-07-13T13:12:22;27.30;36.20
51476;DHT22;37554;50.362;7.568;2023-07-13T13:14:49;27.40;36.10
51476;DHT22;37554;50.362;7.568;2023-07-13T13:17:21;27.40;36.10
51476;DHT22;37554;50.362;7.568;2023-07-13T13:19:49;27.40;36.00
51476;DHT22;37554;50.362;7.568;2023-07-13T13:22:15;27.40;36.10
51476;DHT22;37554;50.362;7.568;2023-07-13T13:24:41;27.40;36.10
51476;DHT22;37554;50.362;7.568;2023-07-13T13:27:16;27.40;36.10
51476;DHT22;37554;50.362;7.568;2023-07-13T13:29:43;27.40;36.00
51476;DHT22;37554;50.362;7.568;2023-07-13T13:32:12;27.50;36.10
51476;DHT22;37554;50.362;7.568;2023-07-13T13:34:38;27.50;36.00
51476;DHT22;37554;50.362;7.568;2023-07-13T13:37:18;27.60;36.00
51476;DHT22;37554;50.362;7.568;2023-07-13T13:39:44;27.60;35.90
51476;DHT22;37554;50.362;7.568;2023-07-13T13:42:10;27.70;36.00
51476;DHT22;37554;50.362;7.568;2023-07-13T13:44:36;27.70;36.00
51476;DHT22;37554;50.362;7.568;2023-07-13T13:47:03;27.70;35.90
51476;DHT22;37554;50.362;7.568;2023-07-13T13:49:30;27.70;35.80
51476;DHT22;37554;50.362;7.568;2023-07-13T13:51:56;27.80;35.80
51476;DHT22;37554;50.362;7.568;2023-07-13T13:54:23;27.80;36.30
51476;DHT22;37554;50.362;7.568;2023-07-13T13:56:51;27.80;35.60
51476;DHT22;37554;50.362;7.568;2023-07-13T13:59:17;27.90;35.60
51476;DHT22;37554;50.362;7.568;2023-07-13T14:01:45;27.90;35.50
51476;DHT22;37554;50.362;7.568;2023-07-13T14:04:19;28.00;35.40
51476;DHT22;37554;50.362;7.568;2023-07-13T14:06:45;28.10;35.20
51476;DHT22;37554;50.362;7.568;2023-07-13T14:09:13;28.20;35.20
51476;DHT22;37554;50.362;7.568;2023-07-13T14:11:41;28.20;35.20
51476;DHT22;37554;50.362;7.568;2023-07-13T14:14:12;28.30;35.40
51476;DHT22;37554;50.362;7.568;2023-07-13T14:16:39;28.30;35.40
51476;DHT22;37554;50.362;7.568;2023-07-13T14:19:10;28.30;35.40
51476;DHT22;37554;50.362;7.568;2023-07-13T14:21:36;28.50;35.50
51476;DHT22;37554;50.362;7.568;2023-07-13T14:24:02;28.50;35.30
51476;DHT22;37554;50.362;7.568;2023-07-13T14:26:30;28.60;35.20
51476;DHT22;37554;50.362;7.568;2023-07-13T14:28:57;28.70;35.00
51476;DHT22;37554;50.362;7.568;2023-07-13T14:31:26;28.80;34.90
51476;DHT22;37554;50.362;7.568;2023-07-13T14:33:54;28.90;34.80
51476;DHT22;37554;50.362;7.568;2023-07-13T14:36:32;28.90;34.70
51476;DHT22;37554;50.362;7.568;2023-07-13T14:39:01;28.90;34.40
51476;DHT22;37554;50.362;7.568;2023-07-13T14:41:31;29.00;34.40
51476;DHT22;37554;50.362;7.568;2023-07-13T14:43:58;29.00;34.40
51476;DHT22;37554;50.362;7.568;2023-07-13T14:46:31;29.10;34.40
51476;DHT22;37554;50.362;7.568;2023-07-13T14:49:05;29.20;34.30
51476;DHT22;37554;50.362;7.568;2023-07-13T14:51:31;29.20;34.20
51476;DHT22;37554;50.362;7.568;2023-07-13T14:54:02;29.40;34.20
51476;DHT22;37554;50.362;7.568;2023-07-13T14:56:28;29.40;34.20
51476;DHT22;37554;50.362;7.568;2023-07-13T14:58:53;29.40;34.30
51476;DHT22;37554;50.362;7.568;2023-07-13T15:01:20;29.40;34.30
51476;DHT22;37554;50.362;7.568;2023-07-13T15:03:48;29.50;34.30
51476;DHT22;37554;50.362;7.568;2023-07-13T15:06:14;29.50;34.30
51476;DHT22;37554;50.362;7.568;2023-07-13T15:08:40;29.50;34.20
51476;DHT22;37554;50.362;7.568;2023-07-13T15:11:07;29.60;34.10
51476;DHT22;37554;50.362;7.568;2023-07-13T15:13:33;29.70;34.10
51476;DHT22;37554;50.362;7.568;2023-07-13T15:16:00;29.70;34.00
51476;DHT22;37554;50.362;7.568;2023-07-13T15:18:26;29.70;33.90
51476;DHT22;37554;50.362;7.568;2023-07-13T15:20:53;29.70;33.90
51476;DHT22;37554;50.362;7.568;2023-07-13T15:23:21;29.80;33.90
51476;DHT22;37554;50.362;7.568;2023-07-13T15:25:48;29.80;33.80
51476;DHT22;37554;50.362;7.568;2023-07-13T15:28:15;29.80;33.80
51476;DHT22;37554;50.362;7.568;2023-07-13T15:30:43;29.90;33.80
51476;DHT22;37554;50.362;7.568;2023-07-13T15:33:13;29.90;33.80
51476;DHT22;37554;50.362;7.568;2023-07-13T15:35:39;29.90;33.80
51476;DHT22;37554;50.362;7.568;2023-07-13T15:38:16;30.00;33.90
51476;DHT22;37554;50.362;7.568;2023-07-13T15:40:43;30.00;33.80
51476;DHT22;37554;50.362;7.568;2023-07-13T15:43:12;30.10;33.80
51476;DHT22;37554;50.362;7.568;2023-07-13T15:45:39;30.10;33.60
51476;DHT22;37554;50.362;7.568;2023-07-13T15:48:20;30.10;33.60
51476;DHT22;37554;50.362;7.568;2023-07-13T15:50:53;30.10;33.50
51476;DHT22;37554;50.362;7.568;2023-07-13T15:53:30;30.10;33.40
51476;DHT22;37554;50.362;7.568;2023-07-13T15:55:58;30.10;33.40
51476;DHT22;37554;50.362;7.568;2023-07-13T15:58:24;30.10;33.40
51476;DHT22;37554;50.362;7.568;2023-07-13T16:00:50;30.20;33.50
51476;DHT22;37554;50.362;7.568;2023-07-13T16:03:17;30.20;33.40
51476;DHT22;37554;50.362;7.568;2023-07-13T16:05:44;30.20;33.30
51476;DHT22;37554;50.362;7.568;2023-07-13T16:08:39;30.20;33.30
51476;DHT22;37554;50.362;7.568;2023-07-13T16:11:53;30.20;33.00
51476;DHT22;37554;50.362;7.568;2023-07-13T16:13:54;30.20;33.30
51476;DHT22;37554;50.362;7.568;2023-07-13T16:16:22;30.20;33.40
51476;DHT22;37554;50.362;7.568;2023-07-13T16:18:52;30.20;33.30
51476;DHT22;37554;50.362;7.568;2023-07-13T16:21:19;30.20;33.30